createdAt,value
2023-05-14T00:00:23.734Z,69.75
2023-05-14T00:02:50.718Z,69.56
2023-05-14T00:05:17.485Z,70.15
2023-05-14T00:07:44.101Z,70.21
2023-05-14T00:10:11.411Z,70.20
2023-05-14T00:12:38.016Z,70.90
2023-05-14T00:15:05.055Z,70.27
2023-05-14T00:17:31.689Z,71.25
2023-05-14T00:19:59.610Z,71.99
2023-05-14T00:22:26.168Z,71.46
2023-05-14T00:27:47.104Z,72.17
2023-05-14T00:30:13.817Z,72.90
2023-05-14T00:32:40.625Z,71.92
2023-05-14T00:35:41.363Z,72.18
2023-05-14T00:38:08.088Z,72.49
2023-05-14T00:40:34.829Z,72.24
2023-05-14T00:43:01.777Z,72.57
2023-05-14T00:45:28.577Z,72.73
2023-05-14T00:47:55.752Z,72.38
2023-05-14T00:50:23.290Z,73.55
2023-05-14T00:52:50.109Z,71.69
2023-05-14T00:58:12.918Z,72.16
2023-05-14T01:00:40.854Z,72.52
2023-05-14T01:03:08.541Z,72.09
2023-05-14T01:05:54.040Z,72.53
2023-05-14T01:08:46.739Z,73.75
2023-05-14T01:11:26.464Z,73.36
2023-05-14T01:14:21.527Z,73.81
2023-05-14T01:16:52.433Z,72.90
2023-05-14T01:19:33.670Z,73.19
2023-05-14T01:22:00.266Z,73.39
2023-05-14T01:24:26.852Z,73.49
2023-05-14T01:26:58.240Z,74.11
2023-05-14T01:29:29.107Z,74.74
2023-05-14T01:31:57.979Z,73.58
2023-05-14T01:34:28.431Z,74.42
2023-05-14T01:36:57.285Z,74.22
2023-05-14T01:39:27.804Z,74.23
2023-05-14T01:41:55.814Z,75.83
2023-05-14T01:44:22.644Z,74.64
2023-05-14T01:46:49.174Z,74.43
2023-05-14T01:49:18.121Z,75.39
2023-05-14T01:51:44.951Z,74.89
2023-05-14T01:54:11.945Z,74.70
2023-05-14T01:56:38.545Z,74.87
2023-05-14T01:59:05.252Z,75.01
2023-05-14T02:01:32.305Z,74.46
2023-05-14T02:03:58.944Z,75.00
2023-05-14T02:06:25.710Z,74.12
2023-05-14T02:08:52.325Z,74.08
2023-05-14T02:11:18.918Z,73.98
2023-05-14T02:13:45.423Z,73.63
2023-05-14T02:16:12.226Z,74.25
2023-05-14T02:18:38.841Z,74.34
2023-05-14T02:21:05.712Z,74.25
2023-05-14T02:23:40.971Z,75.10
2023-05-14T02:26:11.503Z,75.28
2023-05-14T02:28:38.242Z,75.44
2023-05-14T02:31:05.001Z,75.80
2023-05-14T02:33:31.710Z,76.28
2023-05-14T02:35:58.408Z,75.80
2023-05-14T02:38:27.061Z,76.38
2023-05-14T02:40:53.807Z,75.57
2023-05-14T02:43:20.442Z,76.09
2023-05-14T02:45:47.476Z,76.12
2023-05-14T02:48:14.258Z,75.95
2023-05-14T02:50:40.916Z,77.07
2023-05-14T02:53:08.184Z,75.90
2023-05-14T02:55:35.617Z,76.44
2023-05-14T02:58:02.430Z,77.81
2023-05-14T03:00:29.447Z,76.52
2023-05-14T03:02:56.562Z,78.09
2023-05-14T03:05:24.103Z,77.08
2023-05-14T03:07:53.674Z,77.62
2023-05-14T03:10:20.610Z,77.85
2023-05-14T03:12:47.726Z,76.70
2023-05-14T03:15:14.923Z,77.50
2023-05-14T03:17:41.696Z,77.77
2023-05-14T03:23:02.840Z,78.11
2023-05-14T03:25:29.440Z,77.15
2023-05-14T03:27:56.117Z,78.01
2023-05-14T03:30:23.113Z,79.81
2023-05-14T03:32:50.480Z,77.46
2023-05-14T03:35:17.175Z,78.53
2023-05-14T03:37:43.909Z,77.48
2023-05-14T03:40:11.156Z,77.40
2023-05-14T03:42:37.724Z,77.81
2023-05-14T03:45:04.570Z,77.65
2023-05-14T03:47:31.295Z,78.38
2023-05-14T03:49:58.814Z,79.88
2023-05-14T03:52:25.512Z,79.93
2023-05-14T03:54:52.070Z,79.71
2023-05-14T03:57:18.599Z,80.08
2023-05-14T03:59:45.271Z,79.42
2023-05-14T04:02:11.840Z,79.55
2023-05-14T04:04:38.812Z,81.23
2023-05-14T04:07:05.368Z,78.68
2023-05-14T04:09:32.204Z,78.41
2023-05-14T04:11:58.844Z,80.37
2023-05-14T04:14:25.519Z,79.33
2023-05-14T04:16:52.223Z,79.10
2023-05-14T04:19:19.260Z,79.30
2023-05-14T04:21:45.893Z,78.50
2023-05-14T04:24:12.673Z,79.37
2023-05-14T04:26:39.236Z,79.98
2023-05-14T04:29:05.822Z,79.92
2023-05-14T04:31:33.864Z,79.52
2023-05-14T04:34:00.695Z,79.52
2023-05-14T04:36:27.449Z,79.45
2023-05-14T04:38:54.045Z,79.40
2023-05-14T04:41:21.142Z,80.49
2023-05-14T04:43:50.384Z,80.39
2023-05-14T04:46:17.070Z,80.13
2023-05-14T04:48:43.652Z,80.63
2023-05-14T04:51:10.307Z,82.00
2023-05-14T04:53:36.968Z,82.34
2023-05-14T04:56:03.702Z,81.31
2023-05-14T04:58:34.523Z,81.85
2023-05-14T05:01:02.957Z,81.32
2023-05-14T05:03:29.841Z,82.42
2023-05-14T05:05:56.439Z,82.47
2023-05-14T05:08:23.394Z,82.88
2023-05-14T05:10:49.929Z,82.88
2023-05-14T05:13:17.218Z,82.68
2023-05-14T05:15:44.279Z,83.38
2023-05-14T05:18:10.883Z,83.76
2023-05-14T05:20:37.562Z,83.76
2023-05-14T05:23:04.173Z,84.08
2023-05-14T05:25:30.977Z,83.82
2023-05-14T05:27:57.570Z,83.49
2023-05-14T05:30:24.407Z,83.33
2023-05-14T05:32:51.129Z,84.12
2023-05-14T05:35:17.699Z,83.19
2023-05-14T05:37:45.305Z,82.54
2023-05-14T05:40:14.084Z,82.78
2023-05-14T05:42:41.581Z,82.53
2023-05-14T05:45:09.068Z,81.76
2023-05-14T05:47:36.255Z,81.26
2023-05-14T05:50:03.186Z,80.76
2023-05-14T05:52:29.930Z,80.71
2023-05-14T05:54:56.517Z,80.55
2023-05-14T05:57:26.234Z,80.56
2023-05-14T05:59:53.331Z,80.35
2023-05-14T06:02:20.478Z,80.63
2023-05-14T06:04:47.060Z,80.08
2023-05-14T06:07:13.839Z,80.63
2023-05-14T06:09:40.442Z,80.68
2023-05-14T06:12:07.337Z,80.60
2023-05-14T06:14:33.894Z,80.67
2023-05-14T06:17:01.015Z,81.03
2023-05-14T06:19:27.615Z,80.77
2023-05-14T06:24:52.794Z,80.54
2023-05-14T06:27:19.367Z,80.41
2023-05-14T06:29:46.055Z,80.91
2023-05-14T06:32:15.586Z,80.92
2023-05-14T06:34:42.847Z,81.17
2023-05-14T06:37:11.617Z,81.24
2023-05-14T06:39:38.492Z,80.45
2023-05-14T06:42:05.493Z,81.81
2023-05-14T06:44:32.639Z,81.10
2023-05-14T06:46:59.284Z,81.53
2023-05-14T06:49:26.065Z,81.00
2023-05-14T06:51:52.821Z,81.03
2023-05-14T06:54:20.754Z,82.22
2023-05-14T06:56:47.589Z,80.66
2023-05-14T06:59:14.062Z,79.14
2023-05-14T07:01:41.054Z,79.51
2023-05-14T07:04:08.027Z,79.67
2023-05-14T07:06:34.891Z,80.94
2023-05-14T07:09:01.905Z,80.87
2023-05-14T07:11:28.546Z,78.54
2023-05-14T07:13:55.430Z,76.16
2023-05-14T07:16:22.150Z,77.68
2023-05-14T07:18:48.806Z,74.04
2023-05-14T07:21:15.490Z,75.01
2023-05-14T07:23:42.107Z,74.58
2023-05-14T07:26:09.008Z,76.12
2023-05-14T07:28:35.973Z,75.18
2023-05-14T07:31:05.259Z,75.21
2023-05-14T07:33:31.949Z,74.94
2023-05-14T07:35:58.604Z,74.24
2023-05-14T07:38:25.567Z,72.14
2023-05-14T07:40:52.158Z,72.56
2023-05-14T07:43:18.706Z,71.90
2023-05-14T07:45:45.698Z,72.91
2023-05-14T07:48:12.711Z,73.67
2023-05-14T07:50:39.357Z,73.06
2023-05-14T07:53:05.912Z,73.16
2023-05-14T07:55:32.491Z,72.65
2023-05-14T07:57:59.577Z,71.65
2023-05-14T08:00:26.249Z,71.90
2023-05-14T08:02:53.136Z,71.61
2023-05-14T08:05:20.026Z,71.69
2023-05-14T08:07:46.802Z,71.30
2023-05-14T08:10:13.422Z,71.07
2023-05-14T08:12:40.317Z,71.47
2023-05-14T08:15:08.027Z,71.31
2023-05-14T08:17:34.607Z,71.59
2023-05-14T08:22:57.233Z,70.60
2023-05-14T08:25:24.440Z,70.32
2023-05-14T08:27:51.093Z,70.68
2023-05-14T08:30:18.211Z,70.84
2023-05-14T08:32:44.915Z,70.86
2023-05-14T08:38:05.682Z,70.20
2023-05-14T08:40:32.488Z,70.07
2023-05-14T08:43:00.924Z,69.54
2023-05-14T08:45:34.137Z,68.51
2023-05-14T08:48:05.890Z,67.77
2023-05-14T08:50:32.781Z,68.15
2023-05-14T08:52:59.501Z,68.49
2023-05-14T08:55:27.549Z,67.92
2023-05-14T08:57:54.476Z,67.82
2023-05-14T09:00:21.240Z,67.76
2023-05-14T09:02:48.545Z,67.43
2023-05-14T09:05:17.417Z,65.56
2023-05-14T09:07:44.304Z,66.33
2023-05-14T09:10:11.825Z,66.41
2023-05-14T09:12:38.610Z,66.33
2023-05-14T09:15:06.422Z,64.98
2023-05-14T09:17:33.762Z,65.16
2023-05-14T09:22:54.966Z,65.38
2023-05-14T09:25:27.684Z,66.10
2023-05-14T09:27:57.315Z,65.33
2023-05-14T09:30:26.550Z,65.57
2023-05-14T09:32:55.205Z,65.10
2023-05-14T09:35:24.089Z,64.61
2023-05-14T09:37:55.172Z,64.72
2023-05-14T09:40:24.670Z,65.13
2023-05-14T09:42:51.823Z,65.01
2023-05-14T09:48:14.315Z,64.85
2023-05-14T09:50:44.838Z,64.60
2023-05-14T09:53:12.065Z,64.74
2023-05-14T09:55:39.237Z,64.17
2023-05-14T09:58:06.201Z,64.39
2023-05-14T10:00:33.226Z,64.54
2023-05-14T10:03:06.944Z,64.97
2023-05-14T10:05:37.424Z,64.58
2023-05-14T10:08:10.332Z,64.65
2023-05-14T10:10:38.267Z,63.83
2023-05-14T10:13:09.589Z,63.63
2023-05-14T10:15:55.518Z,63.84
2023-05-14T10:18:24.439Z,62.88
2023-05-14T10:21:04.200Z,61.95
2023-05-14T10:23:31.158Z,62.65
2023-05-14T10:25:59.090Z,62.26
2023-05-14T10:28:26.572Z,62.40
2023-05-14T10:30:54.342Z,61.70
2023-05-14T10:33:21.018Z,60.43
2023-05-14T10:35:59.871Z,60.39
2023-05-14T10:38:32.366Z,60.52
2023-05-14T10:41:10.320Z,60.70
2023-05-14T10:43:38.851Z,60.34
2023-05-14T10:46:06.433Z,60.30
2023-05-14T10:48:34.085Z,59.39
2023-05-14T10:51:01.590Z,59.12
2023-05-14T10:53:35.219Z,59.35
2023-05-14T10:56:06.116Z,59.39
2023-05-14T10:58:36.383Z,60.13
2023-05-14T11:01:03.210Z,58.19
2023-05-14T11:03:32.232Z,58.72
2023-05-14T11:06:08.470Z,58.77
2023-05-14T11:08:35.452Z,58.55
2023-05-14T11:11:02.539Z,57.92
2023-05-14T11:13:30.197Z,58.65
2023-05-14T11:16:02.203Z,56.86
2023-05-14T11:18:37.189Z,56.93
2023-05-14T11:21:03.996Z,56.96
2023-05-14T11:23:30.615Z,57.41
2023-05-14T11:26:00.336Z,56.77
2023-05-14T11:28:27.459Z,55.32
2023-05-14T11:30:54.379Z,55.65
2023-05-14T11:33:21.472Z,54.97
2023-05-14T11:35:48.508Z,55.31
2023-05-14T11:38:18.532Z,55.79
2023-05-14T11:40:53.520Z,55.48
2023-05-14T11:43:20.491Z,54.58
2023-05-14T11:45:52.526Z,55.10
2023-05-14T11:48:24.962Z,55.21
2023-05-14T11:50:52.989Z,54.49
2023-05-14T11:53:28.574Z,54.82
2023-05-14T11:55:57.812Z,54.75
2023-05-14T11:58:24.986Z,54.55
2023-05-14T12:00:53.079Z,53.88
2023-05-14T12:03:25.972Z,54.00
2023-05-14T12:06:08.597Z,53.53
2023-05-14T12:08:35.232Z,53.85
2023-05-14T12:11:02.131Z,54.21
2023-05-14T12:13:30.870Z,53.91
2023-05-14T12:16:02.485Z,52.93
2023-05-14T12:18:31.520Z,52.93
2023-05-14T12:21:06.037Z,52.73
2023-05-14T12:23:32.864Z,53.46
2023-05-14T12:26:09.461Z,52.59
2023-05-14T12:28:38.890Z,52.15
2023-05-14T12:31:05.637Z,50.67
2023-05-14T12:33:32.410Z,51.53
2023-05-14T12:36:17.589Z,52.30
2023-05-14T12:38:47.783Z,52.71
2023-05-14T12:41:14.336Z,52.52
2023-05-14T12:43:43.793Z,52.52
2023-05-14T12:46:10.811Z,53.03
2023-05-14T12:48:37.396Z,52.77
2023-05-14T12:51:04.072Z,52.57
2023-05-14T12:53:30.746Z,52.60
2023-05-14T12:55:57.442Z,52.74
2023-05-14T12:58:24.006Z,52.05
2023-05-14T13:00:50.793Z,52.15
2023-05-14T13:03:17.555Z,51.96
2023-05-14T13:05:44.324Z,51.67
2023-05-14T13:08:11.101Z,51.55
2023-05-14T13:10:37.705Z,51.48
2023-05-14T13:13:04.430Z,51.58
2023-05-14T13:15:34.063Z,51.34
2023-05-14T13:18:01.030Z,51.30
2023-05-14T13:20:27.826Z,50.96
2023-05-14T13:22:54.518Z,51.37
2023-05-14T13:25:21.138Z,51.67
2023-05-14T13:27:50.825Z,52.57
2023-05-14T13:30:20.600Z,51.96
2023-05-14T13:32:47.253Z,51.69
2023-05-14T13:35:14.641Z,51.50
2023-05-14T13:40:08.583Z,51.49
2023-05-14T13:42:35.910Z,51.39
2023-05-14T13:45:02.747Z,51.89
2023-05-14T13:47:29.490Z,51.75
2023-05-14T13:49:56.649Z,52.08
2023-05-14T13:52:23.354Z,51.95
2023-05-14T13:54:50.124Z,51.28
2023-05-14T13:57:17.047Z,51.91
2023-05-14T13:59:43.714Z,51.95
2023-05-14T14:02:10.531Z,51.15
2023-05-14T14:04:37.085Z,51.55
2023-05-14T14:07:04.091Z,51.19
2023-05-14T14:09:35.034Z,51.18
2023-05-14T14:12:04.504Z,51.11
2023-05-14T14:14:31.361Z,50.94
2023-05-14T14:16:57.945Z,51.20
2023-05-14T14:19:24.728Z,51.65
2023-05-14T14:24:17.803Z,49.91
2023-05-14T14:26:44.387Z,49.65
2023-05-14T14:29:10.986Z,49.95
2023-05-14T14:31:37.677Z,49.95
2023-05-14T14:34:04.364Z,50.22
2023-05-14T14:36:31.748Z,50.43
2023-05-14T14:38:58.431Z,50.10
2023-05-14T14:41:25.037Z,49.54
2023-05-14T14:43:51.570Z,49.79
2023-05-14T14:46:18.251Z,49.63
2023-05-14T14:48:45.068Z,49.81
2023-05-14T14:51:11.649Z,49.82
2023-05-14T14:53:38.406Z,48.89
2023-05-14T14:56:05.322Z,49.70
2023-05-14T14:58:32.130Z,49.70
2023-05-14T15:00:59.246Z,49.79
2023-05-14T15:03:26.641Z,49.46
2023-05-14T15:05:53.823Z,48.64
2023-05-14T15:08:25.379Z,48.88
2023-05-14T15:10:52.157Z,49.05
2023-05-14T15:13:19.222Z,49.31
2023-05-14T15:15:45.887Z,49.43
2023-05-14T15:18:12.871Z,49.21
2023-05-14T15:23:34.055Z,49.10
2023-05-14T15:26:00.773Z,48.62
2023-05-14T15:28:27.490Z,48.86
2023-05-14T15:30:55.016Z,49.50
2023-05-14T15:33:21.624Z,48.94
2023-05-14T15:35:48.446Z,48.77
2023-05-14T15:38:15.432Z,48.66
2023-05-14T15:40:42.234Z,48.92
2023-05-14T15:43:09.053Z,48.36
2023-05-14T15:45:35.681Z,49.25
2023-05-14T15:48:02.272Z,49.26
2023-05-14T15:50:29.018Z,48.71
2023-05-14T15:52:55.634Z,47.86
2023-05-14T15:58:16.598Z,48.58
2023-05-14T16:00:43.528Z,48.87
2023-05-14T16:03:10.609Z,49.55
2023-05-14T16:08:17.924Z,48.98
2023-05-14T16:10:44.751Z,49.65
2023-05-14T16:13:11.318Z,49.72
2023-05-14T16:15:39.469Z,49.95
2023-05-14T16:18:06.375Z,50.33
2023-05-14T16:20:33.158Z,50.84
2023-05-14T16:22:59.907Z,50.48
2023-05-14T16:25:26.605Z,51.23
2023-05-14T16:27:53.326Z,51.47
2023-05-14T16:30:19.880Z,51.83
2023-05-14T16:32:49.499Z,53.25
2023-05-14T16:35:16.952Z,54.01
2023-05-14T16:37:43.729Z,53.30
2023-05-14T16:40:11.886Z,53.46
2023-05-14T16:42:38.765Z,53.68
2023-05-14T16:45:05.890Z,53.63
2023-05-14T16:47:35.327Z,53.19
2023-05-14T16:50:01.995Z,52.72
2023-05-14T16:52:28.664Z,52.32
2023-05-14T16:54:55.355Z,52.56
2023-05-14T16:57:22.068Z,52.34
2023-05-14T16:59:48.768Z,52.56
2023-05-14T17:02:15.481Z,52.72
2023-05-14T17:04:42.537Z,52.62
2023-05-14T17:07:09.470Z,52.42
2023-05-14T17:09:36.373Z,52.91
2023-05-14T17:12:03.188Z,53.02
2023-05-14T17:14:29.716Z,53.85
2023-05-14T17:16:56.414Z,54.29
2023-05-14T17:19:23.061Z,55.62
2023-05-14T17:21:49.970Z,56.24
2023-05-14T17:24:16.792Z,57.60
2023-05-14T17:26:43.986Z,58.72
2023-05-14T17:29:11.058Z,59.37
2023-05-14T17:31:37.905Z,59.65
2023-05-14T17:34:04.487Z,60.37
2023-05-14T17:36:32.335Z,60.76
2023-05-14T17:38:58.958Z,60.43
2023-05-14T17:41:25.552Z,60.88
2023-05-14T17:43:55.124Z,60.14
2023-05-14T17:46:21.839Z,60.39
2023-05-14T17:48:48.493Z,60.18
2023-05-14T17:51:15.166Z,60.24
2023-05-14T17:53:42.097Z,60.04
2023-05-14T17:56:09.020Z,60.83
2023-05-14T17:58:36.221Z,62.04
2023-05-14T18:01:03.413Z,61.78
2023-05-14T18:03:30.461Z,61.69
2023-05-14T18:05:58.561Z,62.25
2023-05-14T18:08:25.298Z,62.47
2023-05-14T18:10:51.855Z,61.76
2023-05-14T18:13:18.545Z,61.89
2023-05-14T18:15:45.295Z,61.94
2023-05-14T18:18:12.569Z,62.88
2023-05-14T18:20:39.193Z,62.83
2023-05-14T18:23:06.204Z,63.33
2023-05-14T18:25:32.908Z,63.19
2023-05-14T18:27:59.714Z,63.47
2023-05-14T18:30:26.520Z,63.42
2023-05-14T18:32:53.356Z,63.95
2023-05-14T18:35:19.899Z,64.23
2023-05-14T18:37:46.635Z,64.35
2023-05-14T18:40:16.366Z,64.24
2023-05-14T18:42:44.873Z,64.73
2023-05-14T18:45:11.737Z,64.46
2023-05-14T18:47:39.717Z,64.72
2023-05-14T18:50:07.885Z,64.54
2023-05-14T18:52:34.516Z,64.21
2023-05-14T18:55:01.241Z,64.30
2023-05-14T18:57:29.615Z,64.24
2023-05-14T18:59:56.351Z,64.62
2023-05-14T19:02:22.998Z,63.83
2023-05-14T19:04:52.938Z,64.34
2023-05-14T19:07:20.823Z,64.40
2023-05-14T19:09:47.519Z,64.17
2023-05-14T19:12:14.435Z,64.18
2023-05-14T19:14:40.977Z,64.59
2023-05-14T19:17:07.584Z,65.90
2023-05-14T19:19:34.244Z,65.91
2023-05-14T19:22:00.807Z,65.66
2023-05-14T19:24:27.646Z,66.75
2023-05-14T19:26:54.397Z,67.66
2023-05-14T19:29:21.137Z,66.99
2023-05-14T19:31:47.735Z,66.98
2023-05-14T19:34:14.473Z,66.21
2023-05-14T19:36:41.764Z,66.47
2023-05-14T19:39:08.359Z,66.15
2023-05-14T19:41:35.042Z,65.91
2023-05-14T19:44:01.661Z,67.18
2023-05-14T19:46:28.292Z,67.44
2023-05-14T19:48:54.776Z,67.54
2023-05-14T19:51:21.398Z,67.11
2023-05-14T19:53:48.084Z,67.40
2023-05-14T19:56:15.556Z,67.32
2023-05-14T19:58:43.331Z,68.02
2023-05-14T20:01:10.253Z,68.36
2023-05-14T20:03:37.596Z,67.00
2023-05-14T20:06:04.313Z,67.54
2023-05-14T20:08:30.969Z,67.32
2023-05-14T20:10:57.574Z,67.01
2023-05-14T20:13:25.229Z,67.35
2023-05-14T20:15:52.210Z,67.88
2023-05-14T20:18:18.762Z,67.79
2023-05-14T20:20:45.376Z,67.34
2023-05-14T20:23:11.954Z,66.84
2023-05-14T20:25:43.527Z,67.90
2023-05-14T20:28:10.519Z,69.49
2023-05-14T20:30:37.285Z,69.96
2023-05-14T20:33:04.120Z,70.73
2023-05-14T20:35:31.148Z,69.17
2023-05-14T20:37:57.850Z,68.61
2023-05-14T20:40:25.441Z,70.02
2023-05-14T20:42:52.301Z,69.94
2023-05-14T20:45:19.080Z,69.35
2023-05-14T20:47:45.707Z,69.08
2023-05-14T20:50:13.964Z,70.09
2023-05-14T20:52:40.890Z,69.49
2023-05-14T20:55:08.203Z,70.58
2023-05-14T20:57:34.697Z,71.66
2023-05-14T21:00:02.415Z,71.18
2023-05-14T21:02:29.053Z,70.24
2023-05-14T21:05:04.433Z,71.22
2023-05-14T21:07:31.978Z,70.85
2023-05-14T21:09:58.981Z,70.58
2023-05-14T21:12:25.751Z,70.45
2023-05-14T21:14:52.394Z,71.85
2023-05-14T21:17:19.426Z,71.00
2023-05-14T21:19:46.059Z,70.30
2023-05-14T21:22:13.126Z,70.88
2023-05-14T21:24:39.570Z,70.93
2023-05-14T21:27:06.619Z,71.23
2023-05-14T21:29:33.458Z,72.18
2023-05-14T21:32:00.152Z,71.50
2023-05-14T21:34:26.868Z,71.26
2023-05-14T21:36:53.475Z,71.52
2023-05-14T21:39:20.148Z,71.13
2023-05-14T21:41:46.690Z,72.73
2023-05-14T21:44:13.469Z,71.62
2023-05-14T21:46:40.135Z,72.03
2023-05-14T21:49:07.156Z,73.37
2023-05-14T21:51:33.758Z,75.74
2023-05-14T21:54:00.362Z,72.47
2023-05-14T21:56:27.276Z,71.24
2023-05-14T21:58:55.964Z,72.36
2023-05-14T22:01:23.035Z,72.98
2023-05-14T22:03:50.030Z,73.64
2023-05-14T22:06:16.802Z,73.36
2023-05-14T22:08:43.481Z,73.90
2023-05-14T22:11:10.091Z,73.77
2023-05-14T22:13:40.906Z,75.81
2023-05-14T22:16:13.177Z,74.05
2023-05-14T22:18:40.557Z,73.95
2023-05-14T22:21:07.054Z,73.70
2023-05-14T22:23:33.544Z,73.58
2023-05-14T22:26:00.474Z,76.42
2023-05-14T22:28:27.211Z,74.15
2023-05-14T22:30:53.825Z,73.91
2023-05-14T22:33:20.423Z,74.36
2023-05-14T22:35:46.992Z,74.85
2023-05-14T22:38:14.078Z,74.02
2023-05-14T22:40:40.828Z,74.16
2023-05-14T22:43:07.741Z,73.86
2023-05-14T22:45:34.411Z,74.29
2023-05-14T22:48:01.082Z,76.19
2023-05-14T22:50:27.735Z,75.29
2023-05-14T22:52:54.612Z,76.87
2023-05-14T22:55:21.200Z,75.77
2023-05-14T22:57:47.985Z,76.07
2023-05-14T23:00:14.800Z,75.91
2023-05-14T23:02:41.384Z,76.73
2023-05-14T23:05:08.970Z,79.14
2023-05-14T23:07:35.956Z,77.61
2023-05-14T23:10:02.811Z,76.31
2023-05-14T23:12:29.338Z,76.35
2023-05-14T23:14:56.156Z,76.85
2023-05-14T23:17:22.807Z,76.69
2023-05-14T23:19:49.620Z,76.39
2023-05-14T23:22:16.378Z,77.31
2023-05-14T23:24:43.026Z,78.09
2023-05-14T23:27:11.481Z,78.12
2023-05-14T23:29:38.517Z,78.42
2023-05-14T23:32:05.341Z,78.77
2023-05-14T23:34:32.894Z,79.02
2023-05-14T23:36:59.547Z,77.94
2023-05-14T23:39:26.276Z,77.39
2023-05-14T23:41:52.798Z,77.01
2023-05-14T23:44:19.476Z,77.33
2023-05-14T23:46:46.707Z,76.32
2023-05-14T23:49:13.408Z,76.43
2023-05-14T23:51:40.329Z,77.89
2023-05-14T23:54:06.909Z,76.88
2023-05-14T23:56:33.673Z,75.66
2023-05-14T23:59:00.288Z,74.96
